N4469W KVGT-
Flight info
| Callsign | N4469W |
|---|---|
| Flight time | N/A |
| Altitude | VFR |
| Route | |
| Aircraft | BE36/L-VGD/C |
Departure
| Time | 2026-04-25 23:58 |
|---|---|
| Airport | North Las Vegas Airport (KVGT) |
Arrival
| Time | N/A |
|---|---|
| Airport | - |
| Time | Latitude | Longitude | Altitude | Speed | Heading |
|---|---|---|---|---|---|
| 2026-04-25 23:53 | 36.20831 | -115.19725 | 2188 ft | 0 kts | 169° |
| 2026-04-25 23:54 | 36.20829 | -115.19725 | 2188 ft | 3 kts | 168° |
| 2026-04-25 23:54 | 36.20814 | -115.19651 | 2188 ft | 16 kts | 89° |
| 2026-04-25 23:54 | 36.20794 | -115.19549 | 2186 ft | 12 kts | 9° |
| 2026-04-25 23:54 | 36.20867 | -115.19628 | 2188 ft | 18 kts | 314° |
| 2026-04-25 23:55 | 36.20968 | -115.19756 | 2190 ft | 23 kts | 314° |
| 2026-04-25 23:55 | 36.21091 | -115.19909 | 2195 ft | 27 kts | 314° |
| 2026-04-25 23:55 | 36.21219 | -115.20070 | 2201 ft | 15 kts | 317° |
| 2026-04-25 23:55 | 36.21243 | -115.20096 | 2202 ft | 0 kts | 336° |
| 2026-04-25 23:57 | 36.21265 | -115.20087 | 2201 ft | 8 kts | 49° |
| 2026-04-25 23:57 | 36.21221 | -115.19962 | 2197 ft | 44 kts | 137° |
| 2026-04-25 23:58 | 36.20863 | -115.19471 | 2246 ft | 96 kts | 148° |
| 2026-04-25 23:58 | 36.20334 | -115.18887 | 2458 ft | 111 kts | 154° |
| 2026-04-25 23:58 | 36.19680 | -115.18420 | 2775 ft | 103 kts | 182° |
| 2026-04-25 23:58 | 36.18980 | -115.18601 | 2895 ft | 107 kts | 225° |
| 2026-04-25 23:59 | 36.18302 | -115.19099 | 2958 ft | 127 kts | 199° |
| 2026-04-25 23:59 | 36.17793 | -115.19792 | 3402 ft | 117 kts | 254° |
| 2026-04-25 23:59 | 36.17940 | -115.20834 | 3618 ft | 132 kts | 282° |
| 2026-04-25 23:59 | 36.18264 | -115.21924 | 3742 ft | 143 kts | 278° |
| 2026-04-26 00:00 | 36.18569 | -115.23173 | 3679 ft | 157 kts | 279° |
| 2026-04-26 00:00 | 36.18897 | -115.24483 | 3679 ft | 159 kts | 279° |
| 2026-04-26 00:00 | 36.19218 | -115.25770 | 3677 ft | 154 kts | 279° |
| 2026-04-26 00:00 | 36.19263 | -115.27017 | 3704 ft | 139 kts | 242° |
| 2026-04-26 00:01 | 36.18597 | -115.27839 | 3601 ft | 145 kts | 211° |
| 2026-04-26 00:01 | 36.17648 | -115.28309 | 3419 ft | 150 kts | 199° |
| 2026-04-26 00:01 | 36.16590 | -115.28490 | 3228 ft | 158 kts | 191° |
| 2026-04-26 00:01 | 36.15494 | -115.28633 | 3076 ft | 156 kts | 189° |
| 2026-04-26 00:02 | 36.14465 | -115.28787 | 3130 ft | 143 kts | 193° |
| 2026-04-26 00:02 | 36.13500 | -115.28937 | 3103 ft | 135 kts | 194° |
| 2026-04-26 00:02 | 36.12608 | -115.29062 | 3063 ft | 122 kts | 192° |
| 2026-04-26 00:02 | 36.11788 | -115.29143 | 3064 ft | 116 kts | 189° |
| 2026-04-26 00:03 | 36.10976 | -115.29220 | 3091 ft | 119 kts | 194° |
| 2026-04-26 00:03 | 36.10157 | -115.29359 | 3092 ft | 120 kts | 190° |
| 2026-04-26 00:03 | 36.09313 | -115.29187 | 3109 ft | 128 kts | 169° |
| 2026-04-26 00:03 | 36.08445 | -115.28994 | 3113 ft | 126 kts | 182° |
| 2026-04-26 00:04 | 36.07565 | -115.28959 | 3117 ft | 129 kts | 185° |
| 2026-04-26 00:04 | 36.06658 | -115.28935 | 3117 ft | 131 kts | 187° |
| 2026-04-26 00:04 | 36.05747 | -115.28997 | 3112 ft | 129 kts | 189° |